createdAt,value
2015-10-28T19:11:02.664Z,16
2015-10-28T19:11:32.133Z,16
2015-10-28T19:11:44.945Z,16
2015-10-28T19:11:58.039Z,16
2015-10-28T19:12:10.541Z,15
2015-10-28T19:12:22.619Z,15
2015-10-28T19:12:34.885Z,15
2015-10-28T19:12:47.885Z,15
2015-10-28T19:13:00.138Z,15
2015-10-28T19:13:12.982Z,15
2015-10-28T19:13:25.638Z,14
2015-10-28T19:13:37.778Z,14
2015-10-28T19:13:50.107Z,14
2015-10-28T19:14:02.296Z,14
2015-10-28T19:14:14.968Z,14
2015-10-28T19:14:27.234Z,14
2015-10-28T19:14:40.015Z,14
2015-10-28T19:14:52.202Z,14
2015-10-28T19:15:04.440Z,14
2015-10-28T19:15:16.533Z,14
2015-10-28T19:15:28.690Z,13
2015-10-28T19:15:40.830Z,13
2015-10-28T19:15:56.783Z,13
2015-10-28T19:16:08.926Z,13
2015-10-28T19:16:21.129Z,13
2015-10-28T19:16:33.348Z,13
2015-10-28T19:16:46.114Z,12
2015-10-28T19:16:58.270Z,12
2015-10-28T19:17:10.742Z,12
2015-10-28T19:17:27.054Z,12
2015-10-28T19:17:39.179Z,13
2015-10-28T19:17:51.335Z,13
2015-10-28T19:18:03.416Z,12
2015-10-28T19:18:18.557Z,13
2015-10-28T19:18:30.682Z,13
2015-10-28T19:18:42.791Z,12
2015-10-28T19:18:55.416Z,13
2015-10-28T19:19:07.935Z,13
2015-10-28T19:24:37.480Z,12
2015-10-28T19:24:50.402Z,12
2015-10-28T19:25:02.998Z,13
2015-10-28T19:25:16.154Z,12
2015-10-28T19:25:28.310Z,12
2015-10-28T19:25:40.451Z,12
2015-10-28T19:25:55.701Z,12
2015-10-28T19:26:07.860Z,12
2015-10-28T19:26:20.298Z,14
2015-10-28T19:26:32.595Z,12
2015-10-28T19:26:45.048Z,12
2015-10-28T19:26:58.188Z,13
2015-10-28T19:27:10.895Z,12
2015-10-28T19:27:22.973Z,12
2015-10-28T19:27:35.129Z,13
2015-10-28T19:27:49.941Z,12
2015-10-28T19:28:02.350Z,13
2015-10-28T19:28:16.240Z,12
2015-10-28T19:28:29.693Z,12
2015-10-28T19:28:43.803Z,12
2015-10-28T19:28:57.287Z,12
2015-10-28T19:29:10.025Z,12
2015-10-28T19:29:22.665Z,12
2015-10-28T19:29:35.790Z,12
2015-10-28T19:29:56.040Z,12
2015-10-28T19:30:08.745Z,12
2015-10-28T19:30:21.277Z,12
2015-10-28T19:30:33.667Z,12
2015-10-28T19:30:46.355Z,12
2015-10-28T19:30:58.698Z,12
2015-10-28T19:31:11.281Z,12
2015-10-28T19:31:23.906Z,12
2015-10-28T19:31:36.140Z,12
2015-10-28T19:31:49.077Z,12
2015-10-28T19:32:01.374Z,14
2015-10-28T19:32:13.689Z,12
2015-10-28T19:32:25.939Z,12
2015-10-28T19:32:39.564Z,12
2015-10-28T19:32:53.095Z,12
2015-10-28T19:33:07.691Z,12
2015-10-28T19:33:21.003Z,12
2015-10-28T19:39:36.470Z,12
2015-10-28T19:39:49.002Z,12
2015-10-28T19:40:00.955Z,12
2015-10-28T19:42:34.625Z,16
2015-10-28T19:42:46.719Z,12
2015-10-28T19:42:58.891Z,12
2015-10-28T19:43:10.969Z,12
2015-10-28T19:43:23.307Z,12
2015-10-28T19:43:35.697Z,12
2015-10-28T19:43:47.854Z,12
2015-10-28T19:44:04.229Z,12
2015-10-28T19:44:16.772Z,12
2015-10-28T19:44:28.990Z,12
2015-10-28T19:44:41.131Z,12
2015-10-28T19:44:53.365Z,12
2015-10-28T19:45:06.662Z,12
2015-10-28T19:45:21.865Z,12
2015-10-28T19:45:34.006Z,12
2015-10-28T19:45:46.178Z,12
2015-10-28T19:45:58.287Z,12
2015-10-28T19:46:10.412Z,12
2015-10-28T19:46:22.646Z,12
2015-10-28T19:46:34.911Z,12
2015-10-28T19:46:47.442Z,12
2015-10-28T19:46:59.724Z,12
2015-10-28T19:47:12.411Z,12
2015-10-28T19:47:25.708Z,13
2015-10-28T19:47:37.927Z,13
2015-10-28T19:47:50.177Z,14
2015-10-28T19:48:02.427Z,12
2015-10-28T19:48:14.583Z,13
2015-10-28T19:48:26.833Z,12
2015-10-28T19:48:38.989Z,12
2015-10-28T19:48:51.239Z,12
2015-10-28T19:49:03.802Z,12
2015-10-28T19:49:16.817Z,12
2015-10-28T19:49:29.036Z,12
2015-10-28T19:49:41.224Z,12
2015-10-28T19:49:53.317Z,12
2015-10-28T19:50:09.974Z,13
2015-10-28T19:50:23.334Z,12
2015-10-28T19:50:35.443Z,13
2015-10-28T19:50:47.615Z,12
2015-10-28T19:50:59.818Z,12
2015-10-28T19:51:11.912Z,13
2015-10-28T19:51:24.165Z,12
2015-10-28T19:51:36.806Z,12
2015-10-28T19:51:48.868Z,12
2015-10-28T19:52:01.915Z,12
2015-10-28T19:52:14.181Z,12
2015-10-28T19:52:26.369Z,12
2015-10-28T20:02:55.549Z,12
2015-10-28T20:03:12.892Z,12
2015-10-28T20:03:30.067Z,12
2015-10-28T20:03:42.692Z,12
2015-10-28T20:03:57.927Z,12
2015-10-28T20:04:10.817Z,12
2015-10-28T20:04:23.161Z,12
2015-10-28T20:04:35.351Z,12
2015-10-28T20:04:47.820Z,12
2015-10-28T20:05:01.648Z,12
2015-10-28T20:05:13.945Z,12
2015-10-28T20:05:26.697Z,12
2015-10-28T20:05:40.416Z,12
2015-10-28T20:05:53.057Z,12
2015-10-28T20:06:06.510Z,12
2015-10-28T20:06:18.760Z,12
2015-10-28T20:06:31.497Z,12
2015-10-28T20:06:48.278Z,12
2015-10-28T20:07:01.091Z,12
2015-10-28T20:07:13.356Z,12
2015-10-28T20:07:26.481Z,12
2015-10-28T20:07:38.719Z,12
2015-10-28T20:07:51.516Z,12
2015-10-28T20:08:04.297Z,12
2015-10-28T20:08:17.125Z,12
2015-10-28T20:08:29.425Z,12
2015-10-28T20:08:42.050Z,12
2015-10-28T20:08:57.331Z,12
2015-10-28T20:09:09.503Z,12
2015-10-28T20:09:21.800Z,12
2015-10-28T20:09:35.459Z,12
2015-10-28T20:09:48.100Z,12
2015-10-28T20:10:01.037Z,12
2015-10-28T20:10:13.819Z,12
2015-10-28T20:10:29.664Z,12
2015-10-28T20:10:45.821Z,12
2015-10-28T20:10:58.196Z,12
2015-10-28T20:11:10.399Z,12
2015-10-28T20:11:23.133Z,12
2015-10-28T20:11:37.104Z,12
2015-10-28T20:11:49.244Z,12
2015-10-28T20:12:01.901Z,12
2015-10-28T20:12:15.198Z,12
2015-10-28T20:12:27.385Z,12
2015-10-28T20:12:39.639Z,12
2015-10-28T20:12:51.889Z,12
2015-10-28T20:13:04.420Z,12
2015-10-28T20:13:17.123Z,12
2015-10-28T20:13:29.594Z,12
2015-10-28T20:13:43.063Z,12
2015-10-28T20:13:55.782Z,12
2015-10-28T20:14:08.360Z,12
2015-10-28T20:14:23.704Z,12
2015-10-28T20:14:38.253Z,12
2015-10-28T20:14:51.144Z,12
2015-10-28T20:15:05.019Z,12
2015-10-28T20:15:18.207Z,12
2015-10-28T20:15:34.302Z,12
2015-10-28T20:15:47.162Z,12
2015-10-28T20:15:59.459Z,12
2015-10-28T20:16:13.630Z,12
2015-10-28T20:16:27.287Z,12
2015-10-28T20:16:41.008Z,12
2015-10-28T20:16:54.508Z,12
2015-10-28T20:17:07.399Z,12
2015-10-28T20:17:19.696Z,12
2015-10-28T20:17:32.090Z,12
2015-10-28T20:17:44.746Z,12
2015-10-28T20:17:57.511Z,12
2015-10-28T20:18:10.636Z,12
2015-10-28T20:18:23.480Z,12
2015-10-28T20:18:36.935Z,12
2015-10-28T20:18:49.138Z,12
2015-10-28T20:19:02.013Z,12
2015-10-28T20:19:14.232Z,12
2015-10-28T20:19:28.045Z,12
2015-10-28T20:19:43.266Z,12
2015-10-28T20:19:56.657Z,12
2015-10-28T20:20:16.766Z,12
2015-10-28T20:20:33.816Z,12
2015-10-28T20:20:46.113Z,12
2015-10-28T20:20:58.644Z,12
2015-10-28T20:21:16.660Z,12
2015-10-28T20:21:29.894Z,12
2015-10-28T20:21:42.679Z,12
2015-10-28T20:21:54.835Z,12
2015-10-28T20:22:07.462Z,12
2015-10-28T20:22:21.118Z,12
2015-10-28T20:22:34.793Z,12
2015-10-28T20:22:48.137Z,14
2015-10-28T20:23:00.689Z,12
2015-10-28T20:23:14.911Z,12
2015-10-28T20:23:27.942Z,12
2015-10-28T20:23:42.919Z,12
2015-10-28T20:23:58.310Z,12
2015-10-28T20:24:12.232Z,12
2015-10-28T20:24:25.325Z,12
2015-10-28T20:24:38.861Z,12
2015-10-28T20:24:52.642Z,12
2015-10-28T20:25:09.127Z,12
2015-10-28T20:25:24.408Z,12
2015-10-28T20:25:41.504Z,12
2015-10-28T20:25:57.525Z,12
2015-10-28T20:26:10.025Z,12
2015-10-28T20:26:22.431Z,12
2015-10-28T20:26:35.778Z,12
2015-10-28T20:26:48.293Z,12
2015-10-28T20:27:02.387Z,12
2015-10-28T20:27:16.653Z,13
2015-10-28T20:27:29.012Z,12
2015-10-28T20:27:41.467Z,12
2015-10-28T20:27:54.280Z,12
2015-10-28T20:28:06.998Z,12
2015-10-28T20:28:20.764Z,12
2015-10-28T20:28:33.236Z,12
2015-10-28T20:28:46.111Z,12
2015-10-28T20:28:58.580Z,12
2015-10-28T20:29:10.845Z,12
2015-10-28T20:36:38.961Z,12
2015-10-28T20:36:52.602Z,14
2015-10-28T20:37:07.242Z,14
2015-10-28T20:37:20.305Z,14
2015-10-28T20:37:34.057Z,14
2015-10-28T20:37:46.916Z,15
2015-10-28T20:38:00.166Z,14
2015-10-28T20:38:14.369Z,15
2015-10-28T20:38:26.650Z,16
2015-10-28T20:38:38.935Z,15
2015-10-28T20:38:52.200Z,15
2015-10-28T20:39:05.185Z,16
2015-10-28T20:39:17.435Z,16
2015-10-28T20:39:30.388Z,16
2015-10-28T20:39:42.906Z,16
2015-10-28T20:39:55.547Z,16
2015-10-28T20:40:09.328Z,16
2015-10-28T20:40:21.860Z,16
2015-10-28T20:40:34.440Z,16
2015-10-28T20:40:47.455Z,16
2015-10-28T20:41:00.690Z,16
2015-10-28T20:41:12.846Z,16
2015-10-28T20:41:24.971Z,16
2015-10-28T20:41:37.474Z,16
2015-10-28T20:41:50.224Z,17
2015-10-28T20:42:02.396Z,17
2015-10-28T20:42:15.193Z,17
2015-10-28T20:42:27.224Z,17
2015-10-28T20:42:39.993Z,17
2015-10-28T20:42:52.586Z,17
2015-10-28T20:43:05.305Z,17
2015-10-28T20:43:18.321Z,17
2015-10-28T20:43:31.414Z,17
2015-10-28T20:43:45.183Z,17
2015-10-28T20:44:00.855Z,17
2015-10-28T20:44:13.886Z,17
2015-10-28T20:44:25.902Z,17
2015-10-28T20:44:37.951Z,17
2015-10-28T20:44:51.310Z,17
2015-10-28T20:45:04.482Z,18
2015-10-28T20:45:16.498Z,18
2015-10-28T20:45:28.966Z,18
2015-10-28T20:45:42.204Z,18
2015-10-28T20:45:54.235Z,18
2015-10-28T20:46:06.376Z,18
2015-10-28T20:46:18.563Z,18
2015-10-28T20:46:30.594Z,18
2015-10-28T20:46:42.988Z,18
2015-10-28T20:46:55.019Z,18
2015-10-28T20:47:07.816Z,18
2015-10-28T20:47:19.847Z,18
2015-10-28T20:47:32.254Z,18
2015-10-28T20:47:44.538Z,19
2015-10-28T20:47:57.366Z,18
2015-10-28T20:48:12.632Z,18
2015-10-28T20:48:26.053Z,18
2015-10-28T20:48:38.977Z,18
2015-10-28T20:48:51.087Z,18
2015-10-28T20:49:03.165Z,18
2015-10-28T20:49:15.571Z,18
2015-10-28T20:49:27.571Z,18
2015-10-28T20:49:40.152Z,18
2015-10-28T20:49:53.293Z,18
2015-10-28T20:50:05.871Z,18
2015-10-28T20:50:18.918Z,18
2015-10-28T20:50:31.808Z,19
2015-10-28T20:50:44.155Z,18
2015-10-28T20:51:01.186Z,18
2015-10-28T20:51:13.171Z,18
2015-10-28T20:51:25.686Z,18
2015-10-28T20:51:38.080Z,18
2015-10-28T20:51:51.299Z,18
2015-10-28T20:52:04.033Z,18
2015-10-28T20:52:16.596Z,18
2015-10-28T20:52:29.033Z,18
2015-10-28T20:52:41.707Z,18
2015-10-28T20:52:55.285Z,19
2015-10-28T20:53:09.020Z,18
2015-10-28T20:53:27.035Z,18
2015-10-28T20:53:42.568Z,18
2015-10-28T20:53:58.381Z,18
2015-10-28T20:54:10.522Z,18
2015-10-28T20:54:25.928Z,18
2015-10-28T20:54:42.321Z,19
2015-10-28T20:54:55.025Z,19
2015-10-28T20:55:07.993Z,19
2015-10-28T20:55:20.165Z,19
2015-10-28T20:55:32.212Z,19
2015-10-28T20:55:44.356Z,19
